Terminal Aerodrome Forecast
Issued by NWS

Home | Current Version | Previous Version | Text Only | Print | Product List | Glossary Off
Versions: 1 2 3 4 5 6 7 8 9 10 11 12 13 14 15 16 17 18 19 20 21 22 23

922
FTUS43 KFGF 232339
TAFBJI
TAF
KBJI 232339Z 2400/2424 12006KT P6SM -RA OVC040
     FM240100 12006KT P6SM OVC035
     FM240400 VRB06KT P6SM OVC015
     FM240900 34004KT 4SM BR BKN010
     FM241300 36008KT P6SM BKN025=

USA.gov is the U.S. government's official web portal to all federal, state and local government web resources and services.